KAZO

Kalamazoo / Battle Creek International Airport

Kalamazoo, Michigan, USA
KAZO 192336Z 2000/2024 00000KT P6SM SCT140 BKN250 FM201300 16005KT P6SM VCTS SCT045CB BKN070 FM201700 19008KT P6SM SCT035 SCT120 BKN250 FM202000 20012KT P6SM FEW035 SCT250
Issued Valid From Valid To
Sep-19 @ 23:36 UTC
(an hour ago)
Sep-20 @ 00:00 UTC
(43 minutes ago)
Sep-21 @ 00:00 UTC
(in 23 hours)
Sep-20 @ 00:00 to Sep-20 @ 13:00
KAZO 192336Z 2000/2024 00000KT P6SM SCT140 BKN250
Visibility Clouds
Greater than 6 miles
  • Scattered at 14,000' AGL
  • Broken at 25,000' AGL
From Sep-20 @ 13:00 to Sep-20 @ 17:00
FM201300 16005KT P6SM VCTS SCT045CB BKN070
Wind Visibility Clouds Conditions
160° at 5 knots Greater than 6 miles
  • Scattered at 4,500' AGL
  • Broken at 7,000' AGL
  • Area Thunderstorm
From Sep-20 @ 17:00 to Sep-20 @ 20:00
FM201700 19008KT P6SM SCT035 SCT120 BKN250
Wind Visibility Clouds
190° at 8 knots Greater than 6 miles
  • Scattered at 3,500' AGL
  • Scattered at 12,000' AGL
  • Broken at 25,000' AGL
From Sep-20 @ 20:00 to Sep-21 @ 00:00
FM202000 20012KT P6SM FEW035 SCT250
Wind Visibility Clouds
200° at 12 knots Greater than 6 miles
  • Few at 3,500' AGL
  • Scattered at 25,000' AGL
KAZO 192336Z 2000/2024 00000KT P6SM SCT140 BKN250 FM201300 16005KT P6SM VCTS SCT045CB BKN070 FM201700 19008KT P6SM SCT035 SCT120 BKN250 FM202000 20012KT P6SM FEW035 SCT250
Issued Sep-19 @ 23:36 UTC
(an hour ago)
Valid From Sep-20 @ 00:00 UTC
(43 minutes ago)
Valid To Sep-21 @ 00:00 UTC
(in 23 hours)
Sep-20 @ 00:00 - Sep-20 @ 13:00
Clouds
  • Scattered at 14,000' AGL
  • Broken at 25,000' AGL
From Sep-20 @ 13:00 - Sep-20 @ 17:00
Wind Visibility
160° at 5 knots Greater than 6 miles
Clouds
  • Scattered at 4,500' AGL
  • Broken at 7,000' AGL
Conditions
  • Area Thunderstorm
From Sep-20 @ 17:00 - Sep-20 @ 20:00
Wind Visibility
190° at 8 knots Greater than 6 miles
Clouds
  • Scattered at 3,500' AGL
  • Scattered at 12,000' AGL
  • Broken at 25,000' AGL
From Sep-20 @ 20:00 - Sep-21 @ 00:00
Wind Visibility
200° at 12 knots Greater than 6 miles
Clouds
  • Few at 3,500' AGL
  • Scattered at 25,000' AGL